createdAt,value
2022-10-09T00:00:09.571Z,12.24
2022-10-09T00:03:10.242Z,12.28
2022-10-09T00:06:09.336Z,11.84
2022-10-09T00:09:06.993Z,11.40
2022-10-09T00:12:04.038Z,11.32
2022-10-09T00:15:02.637Z,11.55
2022-10-09T00:17:59.982Z,11.94
2022-10-09T00:20:56.914Z,12.16
2022-10-09T00:23:55.088Z,11.91
2022-10-09T00:26:51.960Z,11.95
2022-10-09T00:29:50.613Z,11.65
2022-10-09T00:32:48.068Z,11.47
2022-10-09T00:35:45.898Z,11.42
2022-10-09T00:38:43.648Z,11.31
2022-10-09T00:41:41.248Z,11.37
2022-10-09T00:45:00.258Z,12.05
2022-10-09T00:47:59.830Z,12.15
2022-10-09T00:50:58.411Z,11.89
2022-10-09T00:53:56.594Z,11.76
2022-10-09T00:56:53.980Z,11.93
2022-10-09T00:59:50.998Z,11.99
2022-10-09T01:02:48.258Z,11.89
2022-10-09T01:06:30.446Z,11.94
2022-10-09T01:09:59.678Z,12.00
2022-10-09T01:13:09.887Z,11.63
2022-10-09T01:16:20.251Z,11.37
2022-10-09T01:19:46.269Z,10.99
2022-10-09T01:23:05.290Z,11.09
2022-10-09T01:26:22.756Z,11.30
2022-10-09T01:29:20.399Z,11.36
2022-10-09T01:32:21.254Z,11.33
2022-10-09T01:35:19.770Z,11.40
2022-10-09T01:38:16.692Z,10.87
2022-10-09T01:41:13.982Z,10.62
2022-10-09T01:44:25.691Z,10.52
2022-10-09T01:47:23.057Z,10.18
2022-10-09T01:50:25.227Z,10.40
2022-10-09T01:53:22.591Z,10.42
2022-10-09T01:56:21.679Z,10.52
2022-10-09T01:59:19.032Z,10.65
2022-10-09T02:02:16.219Z,10.55
2022-10-09T02:05:19.293Z,10.68
2022-10-09T02:08:17.662Z,10.63
2022-10-09T02:11:15.279Z,10.76
2022-10-09T02:14:11.787Z,10.80
2022-10-09T02:17:14.754Z,11.00
2022-10-09T02:20:15.060Z,10.80
2022-10-09T02:23:12.552Z,10.81
2022-10-09T02:26:09.588Z,10.65
2022-10-09T02:29:07.294Z,10.77
2022-10-09T02:32:05.100Z,10.84
2022-10-09T02:35:02.159Z,10.63
2022-10-09T02:37:59.253Z,10.67
2022-10-09T02:41:00.337Z,10.64
2022-10-09T02:43:57.836Z,10.59
2022-10-09T02:46:54.931Z,10.77
2022-10-09T02:49:51.830Z,11.06
2022-10-09T02:52:49.147Z,10.99
2022-10-09T02:55:46.827Z,10.81
2022-10-09T02:58:43.768Z,10.52
2022-10-09T03:01:40.903Z,10.10
2022-10-09T03:04:37.827Z,9.94
2022-10-09T03:07:35.062Z,9.46
2022-10-09T03:10:32.773Z,9.27
2022-10-09T03:13:30.142Z,9.27
2022-10-09T03:16:27.091Z,9.29
2022-10-09T03:19:24.421Z,9.21
2022-10-09T03:22:22.064Z,9.11
2022-10-09T03:25:19.203Z,9.02
2022-10-09T03:28:16.025Z,8.93
2022-10-09T03:31:22.529Z,8.86
2022-10-09T03:34:30.091Z,8.82
2022-10-09T03:37:27.061Z,8.84
2022-10-09T03:40:23.942Z,8.81
2022-10-09T03:43:21.018Z,8.75
2022-10-09T03:46:18.224Z,8.75
2022-10-09T03:49:15.738Z,8.67
2022-10-09T03:52:13.077Z,8.57
2022-10-09T03:55:10.190Z,8.52
2022-10-09T03:58:06.993Z,8.47
2022-10-09T04:01:04.094Z,8.49
2022-10-09T04:04:01.017Z,8.55
2022-10-09T04:06:57.975Z,8.63
2022-10-09T04:09:55.610Z,9.03
2022-10-09T04:12:53.019Z,9.30
2022-10-09T04:15:51.402Z,9.22
2022-10-09T04:18:48.319Z,9.31
2022-10-09T04:21:45.974Z,9.91
2022-10-09T04:24:43.234Z,9.97
2022-10-09T04:27:40.224Z,9.93
2022-10-09T04:30:37.297Z,9.77
2022-10-09T04:33:34.302Z,9.38
2022-10-09T04:36:31.378Z,9.16
2022-10-09T04:39:27.885Z,9.16
2022-10-09T04:42:25.213Z,9.37
2022-10-09T04:45:22.076Z,9.66
2022-10-09T04:48:19.258Z,9.68
2022-10-09T04:51:16.469Z,9.55
2022-10-09T04:54:14.152Z,9.27
2022-10-09T04:57:11.142Z,9.32
2022-10-09T05:00:08.702Z,9.21
2022-10-09T05:03:06.379Z,9.01
2022-10-09T05:06:04.513Z,8.89
2022-10-09T05:09:02.215Z,9.17
2022-10-09T05:11:58.783Z,9.21
2022-10-09T05:14:55.914Z,9.37
2022-10-09T05:17:53.054Z,9.27
2022-10-09T05:20:50.395Z,9.08
2022-10-09T05:23:47.559Z,8.95
2022-10-09T05:26:45.093Z,8.88
2022-10-09T05:29:42.077Z,8.76
2022-10-09T05:32:38.837Z,8.64
2022-10-09T05:35:36.299Z,8.67
2022-10-09T05:38:33.657Z,8.74
2022-10-09T05:41:31.201Z,8.66
2022-10-09T05:44:28.241Z,8.55
2022-10-09T05:47:25.330Z,8.73
2022-10-09T05:50:21.887Z,8.86
2022-10-09T05:53:19.027Z,8.77
2022-10-09T05:56:17.141Z,8.67
2022-10-09T05:59:15.667Z,8.43
2022-10-09T06:02:13.096Z,8.40
2022-10-09T06:05:12.756Z,8.42
2022-10-09T06:08:10.003Z,8.43
2022-10-09T06:11:20.601Z,8.45
2022-10-09T06:14:18.116Z,8.62
2022-10-09T06:17:15.294Z,8.83
2022-10-09T06:20:12.031Z,8.91
2022-10-09T06:23:09.192Z,9.07
2022-10-09T06:26:11.722Z,9.20
2022-10-09T06:29:09.105Z,9.24
2022-10-09T06:32:07.253Z,9.26
2022-10-09T06:35:04.170Z,9.27
2022-10-09T06:38:01.503Z,9.41
2022-10-09T06:41:05.459Z,9.33
2022-10-09T06:44:06.282Z,9.30
2022-10-09T06:47:02.853Z,9.19
2022-10-09T06:50:00.342Z,9.09
2022-10-09T06:52:57.145Z,9.25
2022-10-09T06:55:54.610Z,9.16
2022-10-09T06:58:52.066Z,9.21
2022-10-09T07:01:49.198Z,9.46
2022-10-09T07:04:47.165Z,9.66
2022-10-09T07:07:44.095Z,9.71
2022-10-09T07:10:41.400Z,9.87
2022-10-09T07:13:38.356Z,9.97
2022-10-09T07:16:37.671Z,10.19
2022-10-09T07:19:35.085Z,10.25
2022-10-09T07:22:32.521Z,10.23
2022-10-09T07:25:30.315Z,10.26
2022-10-09T07:28:28.261Z,10.48
2022-10-09T07:31:25.458Z,10.82
2022-10-09T07:34:22.377Z,10.96
2022-10-09T07:37:19.364Z,11.27
2022-10-09T07:40:16.076Z,10.96
2022-10-09T07:43:13.526Z,11.14
2022-10-09T07:46:13.226Z,11.51
2022-10-09T07:49:09.957Z,11.51
2022-10-09T07:52:06.953Z,11.52
2022-10-09T07:55:04.463Z,11.60
2022-10-09T07:58:01.374Z,11.67
2022-10-09T08:01:06.785Z,11.66
2022-10-09T08:04:04.542Z,11.73
2022-10-09T08:07:02.099Z,11.53
2022-10-09T08:09:59.516Z,11.79
2022-10-09T08:12:56.345Z,11.82
2022-10-09T08:15:53.285Z,12.04
2022-10-09T08:18:54.356Z,11.99
2022-10-09T08:21:51.074Z,12.04
2022-10-09T08:24:48.636Z,12.26
2022-10-09T08:27:46.314Z,12.27
2022-10-09T08:30:43.325Z,12.32
2022-10-09T08:33:40.359Z,12.56
2022-10-09T08:36:37.260Z,12.50
2022-10-09T08:39:34.174Z,12.80
2022-10-09T08:42:32.418Z,13.05
2022-10-09T08:45:29.130Z,13.07
2022-10-09T08:48:25.961Z,13.22
2022-10-09T08:51:28.303Z,13.55
2022-10-09T08:54:34.914Z,13.24
2022-10-09T08:57:32.823Z,13.46
2022-10-09T09:00:58.820Z,13.32
2022-10-09T09:03:56.280Z,13.30
2022-10-09T09:07:19.876Z,13.50
2022-10-09T09:10:48.905Z,13.85
2022-10-09T09:14:09.094Z,14.02
2022-10-09T09:17:14.464Z,14.08
2022-10-09T09:20:26.989Z,14.21
2022-10-09T09:23:33.629Z,14.51
2022-10-09T09:26:31.274Z,14.55
2022-10-09T09:29:28.222Z,14.52
2022-10-09T09:32:26.521Z,14.72
2022-10-09T09:35:32.627Z,15.22
2022-10-09T09:38:30.269Z,15.16
2022-10-09T09:41:30.568Z,14.97
2022-10-09T09:44:27.495Z,14.97
2022-10-09T09:47:28.091Z,15.06
2022-10-09T09:50:56.475Z,15.13
2022-10-09T09:54:04.221Z,15.20
2022-10-09T09:57:13.856Z,15.49
2022-10-09T10:00:16.549Z,15.65
2022-10-09T10:03:14.702Z,15.64
2022-10-09T10:06:22.607Z,15.91
2022-10-09T10:09:19.415Z,16.07
2022-10-09T10:12:16.005Z,15.89
2022-10-09T10:15:29.568Z,15.87
2022-10-09T10:18:28.387Z,16.08
2022-10-09T10:21:24.981Z,16.05
2022-10-09T10:24:27.609Z,16.17
2022-10-09T10:27:29.818Z,16.06
2022-10-09T10:30:27.385Z,16.09
2022-10-09T10:33:29.313Z,16.00
2022-10-09T10:36:26.346Z,16.07
2022-10-09T10:39:37.276Z,16.44
2022-10-09T10:42:43.974Z,16.63
2022-10-09T10:45:53.961Z,16.34
2022-10-09T10:48:51.749Z,16.33
2022-10-09T10:52:18.585Z,16.41
2022-10-09T10:55:41.260Z,16.82
2022-10-09T10:58:47.218Z,17.48
2022-10-09T11:01:44.280Z,17.64
2022-10-09T11:04:50.658Z,17.45
2022-10-09T11:08:00.161Z,17.82
2022-10-09T11:11:06.141Z,18.04
2022-10-09T11:14:21.462Z,18.20
2022-10-09T11:17:45.921Z,18.02
2022-10-09T11:21:01.426Z,17.67
2022-10-09T11:24:40.450Z,17.85
2022-10-09T11:28:09.162Z,17.56
2022-10-09T11:31:15.036Z,17.76
2022-10-09T11:34:21.363Z,17.81
2022-10-09T11:37:21.217Z,17.83
2022-10-09T11:40:23.307Z,17.99
2022-10-09T11:43:23.332Z,17.70
2022-10-09T11:46:44.827Z,17.79
2022-10-09T11:50:03.801Z,17.89
2022-10-09T11:53:10.420Z,17.49
2022-10-09T11:56:09.054Z,17.65
2022-10-09T11:59:06.778Z,17.76
2022-10-09T12:02:24.906Z,17.64
2022-10-09T12:05:42.154Z,17.96
2022-10-09T12:08:43.997Z,18.11
2022-10-09T12:11:41.186Z,18.08
2022-10-09T12:14:38.430Z,18.18
2022-10-09T12:17:35.315Z,18.23
2022-10-09T12:20:41.123Z,18.21
2022-10-09T12:23:39.087Z,18.19
2022-10-09T12:26:36.340Z,18.09
2022-10-09T12:29:41.171Z,18.20
2022-10-09T12:32:46.469Z,17.92
2022-10-09T12:35:45.507Z,17.72
2022-10-09T12:38:42.718Z,17.68
2022-10-09T12:41:39.677Z,17.83
2022-10-09T12:44:39.975Z,17.66
2022-10-09T12:47:37.717Z,17.78
2022-10-09T12:50:34.925Z,17.95
2022-10-09T12:53:32.615Z,17.84
2022-10-09T12:56:33.334Z,18.29
2022-10-09T12:59:30.168Z,18.39
2022-10-09T13:02:27.695Z,18.57
2022-10-09T13:05:40.667Z,18.21
2022-10-09T13:08:38.345Z,18.24
2022-10-09T13:11:42.991Z,18.35
2022-10-09T13:14:52.525Z,18.35
2022-10-09T13:17:49.923Z,18.29
2022-10-09T13:20:47.923Z,18.53
2022-10-09T13:23:45.960Z,18.51
2022-10-09T13:26:43.711Z,18.51
2022-10-09T13:29:44.210Z,18.22
2022-10-09T13:32:41.574Z,18.08
2022-10-09T13:35:38.589Z,17.93
2022-10-09T13:38:35.716Z,18.03
2022-10-09T13:41:32.476Z,18.10
2022-10-09T13:44:29.534Z,18.00
2022-10-09T13:47:26.537Z,18.05
2022-10-09T13:50:24.416Z,17.96
2022-10-09T13:53:21.960Z,17.76
2022-10-09T13:56:19.828Z,17.79
2022-10-09T13:59:16.562Z,17.94
2022-10-09T14:02:13.530Z,18.13
2022-10-09T14:05:10.812Z,17.85
2022-10-09T14:08:07.723Z,18.00
2022-10-09T14:11:04.898Z,18.08
2022-10-09T14:14:02.824Z,18.02
2022-10-09T14:16:59.660Z,17.81
2022-10-09T14:19:56.295Z,17.90
2022-10-09T14:22:53.584Z,17.71
2022-10-09T14:25:50.518Z,17.60
2022-10-09T14:28:47.790Z,17.82
2022-10-09T14:31:44.686Z,17.88
2022-10-09T14:34:41.427Z,17.81
2022-10-09T14:37:42.373Z,17.78
2022-10-09T14:40:43.469Z,17.58
2022-10-09T14:43:40.875Z,17.49
2022-10-09T14:46:39.213Z,17.76
2022-10-09T14:49:36.288Z,17.80
2022-10-09T14:52:33.681Z,17.53
2022-10-09T14:55:30.820Z,17.46
2022-10-09T14:58:29.642Z,17.46
2022-10-09T15:01:26.961Z,17.35
2022-10-09T15:04:25.897Z,17.37
2022-10-09T15:07:28.215Z,17.28
2022-10-09T15:10:25.773Z,17.13
2022-10-09T15:13:25.185Z,17.21
2022-10-09T15:16:22.650Z,17.26
2022-10-09T15:19:19.549Z,17.21
2022-10-09T15:22:17.000Z,17.28
2022-10-09T15:25:16.772Z,17.37
2022-10-09T15:28:13.627Z,17.48
2022-10-09T15:31:29.251Z,17.23
2022-10-09T15:34:26.941Z,17.33
2022-10-09T15:37:23.581Z,17.35
2022-10-09T15:40:20.759Z,17.39
2022-10-09T15:43:18.913Z,17.40
2022-10-09T15:46:16.749Z,17.58
2022-10-09T15:49:13.476Z,17.56
2022-10-09T15:52:10.403Z,17.58
2022-10-09T15:55:08.227Z,17.63
2022-10-09T15:58:05.437Z,17.61
2022-10-09T16:01:04.801Z,17.58
2022-10-09T16:04:01.336Z,17.42
2022-10-09T16:06:58.400Z,17.39
2022-10-09T16:09:56.911Z,17.24
2022-10-09T16:12:53.597Z,17.20
2022-10-09T16:15:50.509Z,17.11
2022-10-09T16:18:48.074Z,17.02
2022-10-09T16:21:45.701Z,16.99
2022-10-09T16:24:43.769Z,16.94
2022-10-09T16:27:40.502Z,16.75
2022-10-09T16:30:42.131Z,16.63
2022-10-09T16:33:39.577Z,16.62
2022-10-09T16:36:36.423Z,16.61
2022-10-09T16:39:33.571Z,16.57
2022-10-09T16:42:31.171Z,16.51
2022-10-09T16:45:29.172Z,16.40
2022-10-09T16:48:27.143Z,16.16
2022-10-09T16:51:27.146Z,15.97
2022-10-09T16:54:24.781Z,15.91
2022-10-09T16:57:21.758Z,16.00
2022-10-09T17:00:19.421Z,16.02
2022-10-09T17:03:16.988Z,15.98
2022-10-09T17:06:15.937Z,16.00
2022-10-09T17:09:13.953Z,15.91
2022-10-09T17:12:13.103Z,15.83
2022-10-09T17:15:10.534Z,15.68
2022-10-09T17:18:07.967Z,15.52
2022-10-09T17:21:06.159Z,15.45
2022-10-09T17:24:04.267Z,15.38
2022-10-09T17:27:01.499Z,15.46
2022-10-09T17:29:58.540Z,15.44
2022-10-09T17:32:55.289Z,15.31
2022-10-09T17:35:52.800Z,15.25
2022-10-09T17:38:49.904Z,15.19
2022-10-09T17:41:47.549Z,15.15
2022-10-09T17:44:44.697Z,15.13
2022-10-09T17:47:41.796Z,15.07
2022-10-09T17:50:38.776Z,14.94
2022-10-09T17:53:35.759Z,14.83
2022-10-09T17:56:32.867Z,14.83
2022-10-09T17:59:29.426Z,14.90
2022-10-09T18:02:27.075Z,14.86
2022-10-09T18:05:24.622Z,14.65
2022-10-09T18:08:22.424Z,14.52
2022-10-09T18:11:20.341Z,14.57
2022-10-09T18:14:17.695Z,14.72
2022-10-09T18:17:15.024Z,14.74
2022-10-09T18:20:11.684Z,14.92
2022-10-09T18:23:09.641Z,14.90
2022-10-09T18:26:08.131Z,14.86
2022-10-09T18:29:06.100Z,15.02
2022-10-09T18:32:03.896Z,15.07
2022-10-09T18:35:01.047Z,14.98
2022-10-09T18:37:58.394Z,14.83
2022-10-09T18:40:55.683Z,14.74
2022-10-09T18:43:53.264Z,14.63
2022-10-09T18:46:55.847Z,14.70
2022-10-09T18:49:53.174Z,14.89
2022-10-09T18:52:50.979Z,14.87
2022-10-09T18:55:49.042Z,14.67
2022-10-09T18:58:45.719Z,14.60
2022-10-09T19:01:42.552Z,14.32
2022-10-09T19:04:39.796Z,14.33
2022-10-09T19:07:36.849Z,14.30
2022-10-09T19:10:33.713Z,14.42
2022-10-09T19:13:30.857Z,14.49
2022-10-09T19:16:28.787Z,14.21
2022-10-09T19:19:25.548Z,13.98
2022-10-09T19:22:24.083Z,13.64
2022-10-09T19:25:22.030Z,13.54
2022-10-09T19:28:19.354Z,13.54
2022-10-09T19:31:17.052Z,13.63
2022-10-09T19:34:13.860Z,13.73
2022-10-09T19:37:10.789Z,13.80
2022-10-09T19:40:08.496Z,14.00
2022-10-09T19:43:05.726Z,14.09
2022-10-09T19:46:04.561Z,14.16
2022-10-09T19:49:01.841Z,14.25
2022-10-09T19:51:58.696Z,14.00
2022-10-09T19:54:55.628Z,13.71
2022-10-09T19:57:52.803Z,13.54
2022-10-09T20:00:49.591Z,13.36
2022-10-09T20:03:47.323Z,13.40
2022-10-09T20:06:45.077Z,13.40
2022-10-09T20:09:42.004Z,13.55
2022-10-09T20:12:39.077Z,13.57
2022-10-09T20:15:35.875Z,13.52
2022-10-09T20:18:33.271Z,13.48
2022-10-09T20:21:31.784Z,13.40
2022-10-09T20:24:28.599Z,13.25
2022-10-09T20:27:25.658Z,13.21
2022-10-09T20:30:22.803Z,13.29
2022-10-09T20:33:19.664Z,13.17
2022-10-09T20:36:20.649Z,13.07
2022-10-09T20:39:19.542Z,12.89
2022-10-09T20:42:17.076Z,12.68
2022-10-09T20:45:14.170Z,12.43
2022-10-09T20:48:11.154Z,12.48
2022-10-09T20:51:07.731Z,12.43
2022-10-09T20:54:05.319Z,12.45
2022-10-09T20:57:02.927Z,12.54
2022-10-09T20:59:59.807Z,12.68
2022-10-09T21:02:56.988Z,12.66
2022-10-09T21:05:53.641Z,12.59
2022-10-09T21:08:51.085Z,12.51
2022-10-09T21:11:47.604Z,12.31
2022-10-09T21:14:45.005Z,12.30
2022-10-09T21:17:42.140Z,12.18
2022-10-09T21:20:39.895Z,12.11
2022-10-09T21:23:36.727Z,12.03
2022-10-09T21:26:35.791Z,11.90
2022-10-09T21:29:32.798Z,11.96
2022-10-09T21:32:29.591Z,11.94
2022-10-09T21:35:26.757Z,11.94
2022-10-09T21:38:24.122Z,12.08
2022-10-09T21:41:20.634Z,12.04
2022-10-09T21:44:18.187Z,11.94
2022-10-09T21:47:20.680Z,12.03
2022-10-09T21:50:17.938Z,11.94
2022-10-09T21:53:14.833Z,11.96
2022-10-09T21:56:12.043Z,12.09
2022-10-09T21:59:08.905Z,12.10
2022-10-09T22:02:06.024Z,12.16
2022-10-09T22:05:02.618Z,12.07
2022-10-09T22:08:00.490Z,12.04
2022-10-09T22:10:57.835Z,11.96
2022-10-09T22:13:55.574Z,11.86
2022-10-09T22:16:52.777Z,11.90
2022-10-09T22:19:50.680Z,12.00
2022-10-09T22:22:48.589Z,11.94
2022-10-09T22:25:56.422Z,11.75
2022-10-09T22:28:53.967Z,11.74
2022-10-09T22:31:51.012Z,11.80
2022-10-09T22:34:50.701Z,11.71
2022-10-09T22:37:48.162Z,11.58
2022-10-09T22:40:47.219Z,11.46
2022-10-09T22:43:45.814Z,11.42
2022-10-09T22:46:43.759Z,11.40
2022-10-09T22:49:40.781Z,11.28
2022-10-09T22:52:37.874Z,11.10
2022-10-09T22:55:34.674Z,10.95
2022-10-09T22:58:32.306Z,10.79
2022-10-09T23:01:35.442Z,10.68
2022-10-09T23:04:32.955Z,10.64
2022-10-09T23:07:29.879Z,10.56
2022-10-09T23:10:26.843Z,10.52
2022-10-09T23:13:23.788Z,10.52
2022-10-09T23:16:20.794Z,10.54
2022-10-09T23:19:18.171Z,10.49
2022-10-09T23:22:15.169Z,10.47
2022-10-09T23:25:12.011Z,10.45
2022-10-09T23:28:09.015Z,10.45
2022-10-09T23:31:11.375Z,10.41
2022-10-09T23:34:08.619Z,10.38
2022-10-09T23:37:06.129Z,10.38
2022-10-09T23:40:03.005Z,10.46
2022-10-09T23:42:59.961Z,10.50
2022-10-09T23:45:58.096Z,10.48
2022-10-09T23:48:54.938Z,10.50
2022-10-09T23:51:52.107Z,10.59
2022-10-09T23:54:49.157Z,10.69
2022-10-09T23:57:45.940Z,10.65
